岡山グライダークラブ活動状況掲示板

岡山グライダークラブ
岡山市浦安南町639-1 岡南飛行場
 使用機:シャイベ式 SF25C型 ファルケ   JA2330
      ヴァレンティン式17E型 タイフーン  JA2342
 練習日:毎日曜日  クラブルーム:電話 086-265-1810
この掲示板は岡山グライダークラブの活動状況をお知らせする掲示板です。
!!!この掲示板は投稿規制をしています。!!!
クラブ関連各種情報は 岡山グライダークラブクラブルーム      を       .
  ブリーフイング情報は  岡山グライダークラブブリーフィングルーム  をご覧下さい。 .
※写真はクリックすると拡大して見ることが出来ます。
岡南飛行場へのアクセス等は 岡南飛行場管理事務所 をご覧ください。
クラブの ホームページ ができました。

!!!お待たせしました。新型コロナ感染症の感染が下火になったことから見学者等の受入を再開します。!!!
  注)なお、見学等の際には一般的な感染対策(マスク、ソーシャルディスタンス、黙食等)を順守してください。

 
10月30日
by OGC at 2022/10/30(日) 19:31:15 No.20221030192707  削除コメント
640 x 480 x 81,309バイト
No.1

10月30日
本日の参加者
  会員      14名
  その他     00名


@本日の様子






METAR
RJBK 300000Z VRB02KT 30KM FEW020CU SCT/// 12/08 Q1024 A3026
RJOB 300000Z 36003KT 280V050 9999 FEW015 15/08 Q1024
RJOT 300000Z VRB02KT 9999 FEW030 14/07 Q1024
RJOA 300000Z 02009KT 9999 FEW025 13/06 Q1024
TAF
RJOB 292305Z 3000/3106 03008KT 9999 FEW025
RJOT 292307Z 3000/3106 06006KT 9999 FEW030
RJOA 292306Z 3000/3106 34006KT 9999 FEW025
     BECMG 3000/3002 04008KT
     BECMG 3012/3015 34006KT
     BECMG 3100/3103 07006KT


 本日の天候は晴れ、風は朝方、穏やかでしたが、段々と風が強くなったり
弱まったり回ったり、予測が効かない風でした。
 訓練生はNAV訓練を行ったり科目訓練を行ったりしていたようで、
ライセンサーはサーマルがそこそこありソアリングを楽しんでいました。


解散    17:30

1番機  10:35離陸 撤収機  16:40着陸 

SF25C JA2330 ファルケ     10Flt.3h00min  
17E   JA2342 タイフーン    00Flt.0h00min
合計                    10Flt.3h00min

    << 戻る || ホームページ || 最新の掲示板へ